sensor_id;sensor_type;location;lat;lon;timestamp;temperature;humidity
27224;DHT22;14965;50.660;13.226;2023-03-14T00:01:32;8.60;99.90
27224;DHT22;14965;50.660;13.226;2023-03-14T00:03:58;8.50;99.90
27224;DHT22;14965;50.660;13.226;2023-03-14T00:06:24;8.50;99.90
27224;DHT22;14965;50.660;13.226;2023-03-14T00:08:51;8.50;99.90
27224;DHT22;14965;50.660;13.226;2023-03-14T00:11:20;8.50;99.90
27224;DHT22;14965;50.660;13.226;2023-03-14T00:13:47;8.40;99.90
27224;DHT22;14965;50.660;13.226;2023-03-14T00:16:13;8.40;99.90
27224;DHT22;14965;50.660;13.226;2023-03-14T00:18:42;8.40;99.90
27224;DHT22;14965;50.660;13.226;2023-03-14T00:21:10;8.40;99.90
27224;DHT22;14965;50.660;13.226;2023-03-14T00:23:38;8.40;99.90
27224;DHT22;14965;50.660;13.226;2023-03-14T00:26:09;8.40;99.90
27224;DHT22;14965;50.660;13.226;2023-03-14T00:28:38;8.40;99.90
27224;DHT22;14965;50.660;13.226;2023-03-14T00:31:06;8.30;99.90
27224;DHT22;14965;50.660;13.226;2023-03-14T00:33:33;8.30;99.90
27224;DHT22;14965;50.660;13.226;2023-03-14T00:36:00;8.30;99.90
27224;DHT22;14965;50.660;13.226;2023-03-14T00:38:29;8.30;99.90
27224;DHT22;14965;50.660;13.226;2023-03-14T00:40:56;8.20;99.90
27224;DHT22;14965;50.660;13.226;2023-03-14T00:43:23;8.20;99.90
27224;DHT22;14965;50.660;13.226;2023-03-14T00:45:52;8.20;99.90
27224;DHT22;14965;50.660;13.226;2023-03-14T00:48:19;8.20;99.90
27224;DHT22;14965;50.660;13.226;2023-03-14T00:50:46;8.20;99.90
27224;DHT22;14965;50.660;13.226;2023-03-14T00:53:13;8.20;99.90
27224;DHT22;14965;50.660;13.226;2023-03-14T00:55:39;8.20;99.90
27224;DHT22;14965;50.660;13.226;2023-03-14T00:58:06;8.10;99.90
27224;DHT22;14965;50.660;13.226;2023-03-14T01:00:32;8.10;99.90
27224;DHT22;14965;50.660;13.226;2023-03-14T01:03:00;8.10;99.90
27224;DHT22;14965;50.660;13.226;2023-03-14T01:05:27;8.10;99.90
27224;DHT22;14965;50.660;13.226;2023-03-14T01:07:53;8.10;99.90
27224;DHT22;14965;50.660;13.226;2023-03-14T01:10:19;8.10;99.90
27224;DHT22;14965;50.660;13.226;2023-03-14T01:12:46;8.10;99.90
27224;DHT22;14965;50.660;13.226;2023-03-14T01:15:12;8.10;99.90
27224;DHT22;14965;50.660;13.226;2023-03-14T01:17:38;8.10;99.90
27224;DHT22;14965;50.660;13.226;2023-03-14T01:20:10;8.10;99.90
27224;DHT22;14965;50.660;13.226;2023-03-14T01:22:39;8.20;99.90
27224;DHT22;14965;50.660;13.226;2023-03-14T01:25:06;8.20;99.90
27224;DHT22;14965;50.660;13.226;2023-03-14T01:27:34;8.20;99.90
27224;DHT22;14965;50.660;13.226;2023-03-14T01:30:00;8.20;99.90
27224;DHT22;14965;50.660;13.226;2023-03-14T01:32:27;8.30;99.90
27224;DHT22;14965;50.660;13.226;2023-03-14T01:34:53;8.30;99.90
27224;DHT22;14965;50.660;13.226;2023-03-14T01:37:24;8.30;99.90
27224;DHT22;14965;50.660;13.226;2023-03-14T01:39:50;8.30;99.90
27224;DHT22;14965;50.660;13.226;2023-03-14T01:42:16;8.40;99.90
27224;DHT22;14965;50.660;13.226;2023-03-14T01:44:49;8.40;99.90
27224;DHT22;14965;50.660;13.226;2023-03-14T01:47:31;8.40;99.90
27224;DHT22;14965;50.660;13.226;2023-03-14T01:50:06;8.40;99.90
27224;DHT22;14965;50.660;13.226;2023-03-14T01:53:04;8.40;99.90
27224;DHT22;14965;50.660;13.226;2023-03-14T01:55:30;8.40;99.90
27224;DHT22;14965;50.660;13.226;2023-03-14T01:57:59;8.50;99.90
27224;DHT22;14965;50.660;13.226;2023-03-14T02:00:43;8.50;99.90
27224;DHT22;14965;50.660;13.226;2023-03-14T02:03:11;8.40;99.90
27224;DHT22;14965;50.660;13.226;2023-03-14T02:05:42;8.40;99.90
27224;DHT22;14965;50.660;13.226;2023-03-14T02:08:14;8.40;99.90
27224;DHT22;14965;50.660;13.226;2023-03-14T02:10:44;8.40;99.90
27224;DHT22;14965;50.660;13.226;2023-03-14T02:13:14;8.40;99.90
27224;DHT22;14965;50.660;13.226;2023-03-14T02:15:42;8.40;99.90
27224;DHT22;14965;50.660;13.226;2023-03-14T02:18:09;8.40;99.90
27224;DHT22;14965;50.660;13.226;2023-03-14T02:20:38;8.40;99.90
27224;DHT22;14965;50.660;13.226;2023-03-14T02:23:16;8.40;99.90
27224;DHT22;14965;50.660;13.226;2023-03-14T02:25:53;8.40;99.90
27224;DHT22;14965;50.660;13.226;2023-03-14T02:28:25;8.40;99.90
27224;DHT22;14965;50.660;13.226;2023-03-14T02:30:51;8.50;99.90
27224;DHT22;14965;50.660;13.226;2023-03-14T02:33:19;8.50;99.90
27224;DHT22;14965;50.660;13.226;2023-03-14T02:35:50;8.50;99.90
27224;DHT22;14965;50.660;13.226;2023-03-14T02:38:27;8.50;99.90
27224;DHT22;14965;50.660;13.226;2023-03-14T02:41:04;8.60;99.90
27224;DHT22;14965;50.660;13.226;2023-03-14T02:43:32;8.60;99.90
27224;DHT22;14965;50.660;13.226;2023-03-14T02:46:00;8.60;99.90
27224;DHT22;14965;50.660;13.226;2023-03-14T02:48:31;8.60;99.90
27224;DHT22;14965;50.660;13.226;2023-03-14T02:51:01;8.50;99.90
27224;DHT22;14965;50.660;13.226;2023-03-14T02:53:29;8.50;99.90
27224;DHT22;14965;50.660;13.226;2023-03-14T02:55:57;8.50;99.90
27224;DHT22;14965;50.660;13.226;2023-03-14T02:58:24;8.50;99.90
27224;DHT22;14965;50.660;13.226;2023-03-14T03:00:51;8.50;99.90
27224;DHT22;14965;50.660;13.226;2023-03-14T03:03:20;8.50;99.90
27224;DHT22;14965;50.660;13.226;2023-03-14T03:05:48;8.50;99.90
27224;DHT22;14965;50.660;13.226;2023-03-14T03:08:15;8.40;99.90
27224;DHT22;14965;50.660;13.226;2023-03-14T03:10:41;8.40;99.90
27224;DHT22;14965;50.660;13.226;2023-03-14T03:13:06;8.40;99.90
27224;DHT22;14965;50.660;13.226;2023-03-14T03:15:32;8.30;99.90
27224;DHT22;14965;50.660;13.226;2023-03-14T03:18:00;8.30;99.90
27224;DHT22;14965;50.660;13.226;2023-03-14T03:20:26;8.30;99.90
27224;DHT22;14965;50.660;13.226;2023-03-14T03:22:52;8.30;99.90
27224;DHT22;14965;50.660;13.226;2023-03-14T03:25:18;8.30;99.90
27224;DHT22;14965;50.660;13.226;2023-03-14T03:27:47;8.30;99.90
27224;DHT22;14965;50.660;13.226;2023-03-14T03:30:13;8.30;99.90
27224;DHT22;14965;50.660;13.226;2023-03-14T03:32:44;8.30;99.90
27224;DHT22;14965;50.660;13.226;2023-03-14T03:35:19;8.30;99.90
27224;DHT22;14965;50.660;13.226;2023-03-14T03:37:47;8.30;99.90
27224;DHT22;14965;50.660;13.226;2023-03-14T03:40:13;8.30;99.90
27224;DHT22;14965;50.660;13.226;2023-03-14T03:42:39;8.30;99.90
27224;DHT22;14965;50.660;13.226;2023-03-14T03:45:06;8.30;99.90
27224;DHT22;14965;50.660;13.226;2023-03-14T03:47:32;8.30;99.90
27224;DHT22;14965;50.660;13.226;2023-03-14T03:49:58;8.20;99.90
27224;DHT22;14965;50.660;13.226;2023-03-14T03:52:26;8.20;99.90
27224;DHT22;14965;50.660;13.226;2023-03-14T03:54:52;8.10;99.90
27224;DHT22;14965;50.660;13.226;2023-03-14T03:57:17;8.10;99.90
27224;DHT22;14965;50.660;13.226;2023-03-14T03:59:43;8.00;99.90
27224;DHT22;14965;50.660;13.226;2023-03-14T04:02:09;8.00;99.90
27224;DHT22;14965;50.660;13.226;2023-03-14T04:04:35;8.00;99.90
27224;DHT22;14965;50.660;13.226;2023-03-14T04:07:01;8.00;99.90
27224;DHT22;14965;50.660;13.226;2023-03-14T04:09:29;8.00;99.90
27224;DHT22;14965;50.660;13.226;2023-03-14T04:11:55;7.90;99.90
27224;DHT22;14965;50.660;13.226;2023-03-14T04:14:21;7.90;99.90
27224;DHT22;14965;50.660;13.226;2023-03-14T04:16:48;7.90;99.90
27224;DHT22;14965;50.660;13.226;2023-03-14T04:19:13;7.90;99.90
27224;DHT22;14965;50.660;13.226;2023-03-14T04:21:40;7.80;99.90
27224;DHT22;14965;50.660;13.226;2023-03-14T04:24:05;7.80;99.90
27224;DHT22;14965;50.660;13.226;2023-03-14T04:26:33;7.80;99.90
27224;DHT22;14965;50.660;13.226;2023-03-14T04:28:59;7.70;99.90
27224;DHT22;14965;50.660;13.226;2023-03-14T04:31:25;7.70;99.90
27224;DHT22;14965;50.660;13.226;2023-03-14T04:33:51;7.70;99.90
27224;DHT22;14965;50.660;13.226;2023-03-14T04:36:17;7.70;99.90
27224;DHT22;14965;50.660;13.226;2023-03-14T04:38:43;7.60;99.90
27224;DHT22;14965;50.660;13.226;2023-03-14T04:41:09;7.60;99.90
27224;DHT22;14965;50.660;13.226;2023-03-14T04:43:36;7.60;99.90
27224;DHT22;14965;50.660;13.226;2023-03-14T04:46:02;7.60;99.90
27224;DHT22;14965;50.660;13.226;2023-03-14T04:48:28;7.60;99.90
27224;DHT22;14965;50.660;13.226;2023-03-14T04:50:55;7.60;99.90
27224;DHT22;14965;50.660;13.226;2023-03-14T04:53:21;7.60;99.90
27224;DHT22;14965;50.660;13.226;2023-03-14T04:55:48;7.70;99.90
27224;DHT22;14965;50.660;13.226;2023-03-14T04:58:14;7.70;99.90
27224;DHT22;14965;50.660;13.226;2023-03-14T05:00:41;7.80;99.90
27224;DHT22;14965;50.660;13.226;2023-03-14T05:03:07;7.80;99.90
27224;DHT22;14965;50.660;13.226;2023-03-14T05:05:33;7.80;99.90
27224;DHT22;14965;50.660;13.226;2023-03-14T05:07:59;7.80;99.90
27224;DHT22;14965;50.660;13.226;2023-03-14T05:10:25;7.80;99.90
27224;DHT22;14965;50.660;13.226;2023-03-14T05:12:51;7.80;99.90
27224;DHT22;14965;50.660;13.226;2023-03-14T05:15:17;7.80;99.90
27224;DHT22;14965;50.660;13.226;2023-03-14T05:17:45;7.70;99.90
27224;DHT22;14965;50.660;13.226;2023-03-14T05:20:13;7.70;99.90
27224;DHT22;14965;50.660;13.226;2023-03-14T05:22:39;7.70;99.90
27224;DHT22;14965;50.660;13.226;2023-03-14T05:25:05;7.70;99.90
27224;DHT22;14965;50.660;13.226;2023-03-14T05:27:32;7.70;99.90
27224;DHT22;14965;50.660;13.226;2023-03-14T05:29:58;7.70;99.90
27224;DHT22;14965;50.660;13.226;2023-03-14T05:32:24;7.70;99.90
27224;DHT22;14965;50.660;13.226;2023-03-14T05:34:51;7.70;99.90
27224;DHT22;14965;50.660;13.226;2023-03-14T05:37:17;7.70;99.90
27224;DHT22;14965;50.660;13.226;2023-03-14T05:39:43;7.70;99.90
27224;DHT22;14965;50.660;13.226;2023-03-14T05:42:09;7.70;99.90
27224;DHT22;14965;50.660;13.226;2023-03-14T05:44:35;7.70;99.90
27224;DHT22;14965;50.660;13.226;2023-03-14T05:47:01;7.70;99.90
27224;DHT22;14965;50.660;13.226;2023-03-14T05:49:27;7.70;99.90
27224;DHT22;14965;50.660;13.226;2023-03-14T05:51:56;7.70;99.90
27224;DHT22;14965;50.660;13.226;2023-03-14T05:54:22;7.70;99.90
27224;DHT22;14965;50.660;13.226;2023-03-14T05:56:48;7.70;99.90
27224;DHT22;14965;50.660;13.226;2023-03-14T05:59:14;7.70;99.90
27224;DHT22;14965;50.660;13.226;2023-03-14T06:01:40;7.70;99.90
27224;DHT22;14965;50.660;13.226;2023-03-14T06:04:06;7.80;99.90
27224;DHT22;14965;50.660;13.226;2023-03-14T06:06:32;7.80;99.90
27224;DHT22;14965;50.660;13.226;2023-03-14T06:08:59;7.70;99.90
27224;DHT22;14965;50.660;13.226;2023-03-14T06:11:25;7.70;99.90
27224;DHT22;14965;50.660;13.226;2023-03-14T06:13:51;7.70;99.90
27224;DHT22;14965;50.660;13.226;2023-03-14T06:16:17;7.70;99.90
27224;DHT22;14965;50.660;13.226;2023-03-14T06:18:43;7.80;99.90
27224;DHT22;14965;50.660;13.226;2023-03-14T06:21:09;7.80;99.90
27224;DHT22;14965;50.660;13.226;2023-03-14T06:23:35;7.80;99.90
27224;DHT22;14965;50.660;13.226;2023-03-14T06:26:02;7.80;99.90
27224;DHT22;14965;50.660;13.226;2023-03-14T06:28:28;7.90;99.90
27224;DHT22;14965;50.660;13.226;2023-03-14T06:30:54;7.90;99.90
27224;DHT22;14965;50.660;13.226;2023-03-14T06:33:20;7.90;99.90
27224;DHT22;14965;50.660;13.226;2023-03-14T06:35:46;8.00;99.90
27224;DHT22;14965;50.660;13.226;2023-03-14T06:38:12;8.00;99.90
27224;DHT22;14965;50.660;13.226;2023-03-14T06:40:38;8.00;99.90
27224;DHT22;14965;50.660;13.226;2023-03-14T06:43:05;8.00;99.90
27224;DHT22;14965;50.660;13.226;2023-03-14T06:45:31;8.00;99.90
27224;DHT22;14965;50.660;13.226;2023-03-14T06:47:57;8.00;99.90
27224;DHT22;14965;50.660;13.226;2023-03-14T06:50:23;8.10;99.90
27224;DHT22;14965;50.660;13.226;2023-03-14T06:52:49;8.10;99.90
27224;DHT22;14965;50.660;13.226;2023-03-14T06:55:15;8.10;99.90
27224;DHT22;14965;50.660;13.226;2023-03-14T06:57:42;8.10;99.90
27224;DHT22;14965;50.660;13.226;2023-03-14T07:00:11;8.10;99.90
27224;DHT22;14965;50.660;13.226;2023-03-14T07:02:38;8.10;99.90
27224;DHT22;14965;50.660;13.226;2023-03-14T07:05:04;8.10;99.90
27224;DHT22;14965;50.660;13.226;2023-03-14T07:07:31;8.10;99.90
27224;DHT22;14965;50.660;13.226;2023-03-14T07:09:57;8.10;99.90
27224;DHT22;14965;50.660;13.226;2023-03-14T07:12:23;8.10;99.90
27224;DHT22;14965;50.660;13.226;2023-03-14T07:14:49;8.10;99.90
27224;DHT22;14965;50.660;13.226;2023-03-14T07:17:16;8.20;99.90
27224;DHT22;14965;50.660;13.226;2023-03-14T07:19:42;8.20;99.90
27224;DHT22;14965;50.660;13.226;2023-03-14T07:22:08;8.20;99.90
27224;DHT22;14965;50.660;13.226;2023-03-14T07:24:34;8.20;99.90
27224;DHT22;14965;50.660;13.226;2023-03-14T07:26:59;8.20;99.90
27224;DHT22;14965;50.660;13.226;2023-03-14T07:29:25;8.30;99.90
27224;DHT22;14965;50.660;13.226;2023-03-14T07:31:51;8.30;99.90
27224;DHT22;14965;50.660;13.226;2023-03-14T07:34:18;8.30;99.90
27224;DHT22;14965;50.660;13.226;2023-03-14T07:36:44;8.30;99.90
27224;DHT22;14965;50.660;13.226;2023-03-14T07:39:10;8.30;99.90
27224;DHT22;14965;50.660;13.226;2023-03-14T07:41:36;8.30;99.90
27224;DHT22;14965;50.660;13.226;2023-03-14T07:44:02;8.30;99.90
27224;DHT22;14965;50.660;13.226;2023-03-14T07:46:28;8.30;99.90
27224;DHT22;14965;50.660;13.226;2023-03-14T07:48:53;8.30;99.90
27224;DHT22;14965;50.660;13.226;2023-03-14T07:51:21;8.30;99.90
27224;DHT22;14965;50.660;13.226;2023-03-14T07:53:47;8.30;99.90
27224;DHT22;14965;50.660;13.226;2023-03-14T07:56:16;8.20;99.90
27224;DHT22;14965;50.660;13.226;2023-03-14T07:58:41;8.20;99.90
27224;DHT22;14965;50.660;13.226;2023-03-14T08:01:08;8.40;99.90
27224;DHT22;14965;50.660;13.226;2023-03-14T08:03:34;8.50;99.90
27224;DHT22;14965;50.660;13.226;2023-03-14T08:06:00;8.60;99.90
27224;DHT22;14965;50.660;13.226;2023-03-14T08:08:27;8.60;99.90
27224;DHT22;14965;50.660;13.226;2023-03-14T08:10:53;8.60;99.90
27224;DHT22;14965;50.660;13.226;2023-03-14T08:13:19;8.70;99.90
27224;DHT22;14965;50.660;13.226;2023-03-14T08:15:47;8.70;99.90
27224;DHT22;14965;50.660;13.226;2023-03-14T08:18:13;8.70;99.90
27224;DHT22;14965;50.660;13.226;2023-03-14T08:20:40;8.70;99.90
27224;DHT22;14965;50.660;13.226;2023-03-14T08:23:05;8.70;99.90
27224;DHT22;14965;50.660;13.226;2023-03-14T08:25:33;8.80;99.90
27224;DHT22;14965;50.660;13.226;2023-03-14T08:27:59;8.80;99.90
27224;DHT22;14965;50.660;13.226;2023-03-14T08:30:25;8.80;99.90
27224;DHT22;14965;50.660;13.226;2023-03-14T08:32:51;8.80;99.90
27224;DHT22;14965;50.660;13.226;2023-03-14T08:35:17;8.80;99.90
27224;DHT22;14965;50.660;13.226;2023-03-14T08:37:44;8.80;99.90
27224;DHT22;14965;50.660;13.226;2023-03-14T08:40:11;8.80;99.90
27224;DHT22;14965;50.660;13.226;2023-03-14T08:42:39;8.80;99.90
27224;DHT22;14965;50.660;13.226;2023-03-14T08:45:07;8.70;99.90
27224;DHT22;14965;50.660;13.226;2023-03-14T08:47:34;8.70;99.90
27224;DHT22;14965;50.660;13.226;2023-03-14T08:50:01;8.80;99.90
27224;DHT22;14965;50.660;13.226;2023-03-14T08:52:27;8.80;99.90
27224;DHT22;14965;50.660;13.226;2023-03-14T08:54:53;8.90;99.90
27224;DHT22;14965;50.660;13.226;2023-03-14T08:57:19;8.90;99.90
27224;DHT22;14965;50.660;13.226;2023-03-14T08:59:46;8.80;99.90
27224;DHT22;14965;50.660;13.226;2023-03-14T09:02:12;8.90;99.90
27224;DHT22;14965;50.660;13.226;2023-03-14T09:04:38;8.90;99.90
27224;DHT22;14965;50.660;13.226;2023-03-14T09:07:04;8.90;99.90
27224;DHT22;14965;50.660;13.226;2023-03-14T09:09:30;8.90;99.90
27224;DHT22;14965;50.660;13.226;2023-03-14T09:11:56;8.90;99.90
27224;DHT22;14965;50.660;13.226;2023-03-14T09:14:25;9.00;99.90
27224;DHT22;14965;50.660;13.226;2023-03-14T09:16:56;9.00;99.90
27224;DHT22;14965;50.660;13.226;2023-03-14T09:19:31;9.00;99.90
27224;DHT22;14965;50.660;13.226;2023-03-14T09:22:00;9.00;99.90
27224;DHT22;14965;50.660;13.226;2023-03-14T09:24:35;9.10;99.90
27224;DHT22;14965;50.660;13.226;2023-03-14T09:27:01;9.10;99.90
27224;DHT22;14965;50.660;13.226;2023-03-14T09:29:29;9.10;99.90
27224;DHT22;14965;50.660;13.226;2023-03-14T09:31:58;9.00;99.90
27224;DHT22;14965;50.660;13.226;2023-03-14T09:34:25;9.00;99.90
27224;DHT22;14965;50.660;13.226;2023-03-14T09:36:51;8.90;99.90
27224;DHT22;14965;50.660;13.226;2023-03-14T09:39:17;8.90;99.90
27224;DHT22;14965;50.660;13.226;2023-03-14T09:41:45;8.90;99.90
27224;DHT22;14965;50.660;13.226;2023-03-14T09:44:15;8.80;99.90
27224;DHT22;14965;50.660;13.226;2023-03-14T09:46:51;8.90;99.90
27224;DHT22;14965;50.660;13.226;2023-03-14T09:49:23;8.90;99.90
27224;DHT22;14965;50.660;13.226;2023-03-14T09:51:54;8.80;99.90
27224;DHT22;14965;50.660;13.226;2023-03-14T09:54:30;8.90;99.90
27224;DHT22;14965;50.660;13.226;2023-03-14T09:56:59;8.90;99.90
27224;DHT22;14965;50.660;13.226;2023-03-14T09:59:28;8.80;99.90
27224;DHT22;14965;50.660;13.226;2023-03-14T10:02:18;8.90;99.90
27224;DHT22;14965;50.660;13.226;2023-03-14T10:04:53;8.90;99.90
27224;DHT22;14965;50.660;13.226;2023-03-14T10:07:28;9.00;99.90
27224;DHT22;14965;50.660;13.226;2023-03-14T10:10:13;9.00;99.90
27224;DHT22;14965;50.660;13.226;2023-03-14T10:12:45;9.10;99.90
27224;DHT22;14965;50.660;13.226;2023-03-14T10:15:14;9.10;99.90
27224;DHT22;14965;50.660;13.226;2023-03-14T10:17:54;9.00;99.90
27224;DHT22;14965;50.660;13.226;2023-03-14T10:20:33;9.00;99.90
27224;DHT22;14965;50.660;13.226;2023-03-14T10:23:19;9.00;99.90
27224;DHT22;14965;50.660;13.226;2023-03-14T10:26:03;9.00;99.90
27224;DHT22;14965;50.660;13.226;2023-03-14T10:28:34;9.10;99.90
27224;DHT22;14965;50.660;13.226;2023-03-14T10:31:04;9.10;99.90
27224;DHT22;14965;50.660;13.226;2023-03-14T10:33:37;9.10;99.90
27224;DHT22;14965;50.660;13.226;2023-03-14T10:36:14;9.10;99.90
27224;DHT22;14965;50.660;13.226;2023-03-14T10:38:47;9.10;99.90
27224;DHT22;14965;50.660;13.226;2023-03-14T10:41:16;9.10;99.90
27224;DHT22;14965;50.660;13.226;2023-03-14T10:43:53;9.20;99.90
27224;DHT22;14965;50.660;13.226;2023-03-14T10:46:25;9.30;99.90
27224;DHT22;14965;50.660;13.226;2023-03-14T10:48:52;9.40;99.90
27224;DHT22;14965;50.660;13.226;2023-03-14T10:51:26;9.40;99.90
27224;DHT22;14965;50.660;13.226;2023-03-14T10:53:59;9.50;99.90
27224;DHT22;14965;50.660;13.226;2023-03-14T10:56:28;9.60;99.90
27224;DHT22;14965;50.660;13.226;2023-03-14T10:59:00;9.60;99.90
27224;DHT22;14965;50.660;13.226;2023-03-14T11:01:38;9.70;99.90
27224;DHT22;14965;50.660;13.226;2023-03-14T11:04:38;9.70;99.90
27224;DHT22;14965;50.660;13.226;2023-03-14T11:07:21;9.90;99.90
27224;DHT22;14965;50.660;13.226;2023-03-14T11:09:58;10.00;99.90
27224;DHT22;14965;50.660;13.226;2023-03-14T11:12:37;10.30;99.90
27224;DHT22;14965;50.660;13.226;2023-03-14T11:15:17;10.50;99.90
27224;DHT22;14965;50.660;13.226;2023-03-14T11:17:59;10.80;99.90
27224;DHT22;14965;50.660;13.226;2023-03-14T11:20:45;10.70;99.90
27224;DHT22;14965;50.660;13.226;2023-03-14T11:23:21;10.70;99.90
27224;DHT22;14965;50.660;13.226;2023-03-14T11:26:16;10.60;99.90
27224;DHT22;14965;50.660;13.226;2023-03-14T11:28:54;10.50;99.90
27224;DHT22;14965;50.660;13.226;2023-03-14T11:31:26;10.50;99.90
27224;DHT22;14965;50.660;13.226;2023-03-14T11:33:56;10.60;99.90
27224;DHT22;14965;50.660;13.226;2023-03-14T11:36:32;10.50;99.90
27224;DHT22;14965;50.660;13.226;2023-03-14T11:39:19;10.50;99.90
27224;DHT22;14965;50.660;13.226;2023-03-14T11:41:51;10.70;99.90
27224;DHT22;14965;50.660;13.226;2023-03-14T11:44:22;10.70;99.90
27224;DHT22;14965;50.660;13.226;2023-03-14T11:46:54;10.60;99.90
27224;DHT22;14965;50.660;13.226;2023-03-14T11:49:31;10.50;99.90
27224;DHT22;14965;50.660;13.226;2023-03-14T11:52:04;10.50;99.90
27224;DHT22;14965;50.660;13.226;2023-03-14T11:54:40;10.40;99.90
27224;DHT22;14965;50.660;13.226;2023-03-14T11:57:14;10.50;99.90
27224;DHT22;14965;50.660;13.226;2023-03-14T11:59:50;10.50;99.90
27224;DHT22;14965;50.660;13.226;2023-03-14T12:02:25;10.20;99.90
27224;DHT22;14965;50.660;13.226;2023-03-14T12:05:44;9.90;99.90
27224;DHT22;14965;50.660;13.226;2023-03-14T12:08:26;9.80;99.90
27224;DHT22;14965;50.660;13.226;2023-03-14T12:11:18;9.90;99.90
27224;DHT22;14965;50.660;13.226;2023-03-14T12:13:50;10.00;99.90
27224;DHT22;14965;50.660;13.226;2023-03-14T12:16:34;10.00;99.90
27224;DHT22;14965;50.660;13.226;2023-03-14T12:22:13;10.10;99.90
27224;DHT22;14965;50.660;13.226;2023-03-14T12:24:50;10.20;99.90
27224;DHT22;14965;50.660;13.226;2023-03-14T12:27:49;10.20;99.90
27224;DHT22;14965;50.660;13.226;2023-03-14T12:30:42;10.20;99.90
27224;DHT22;14965;50.660;13.226;2023-03-14T12:33:29;10.20;99.90
27224;DHT22;14965;50.660;13.226;2023-03-14T12:39:20;10.30;99.90
27224;DHT22;14965;50.660;13.226;2023-03-14T12:42:01;10.30;99.90
27224;DHT22;14965;50.660;13.226;2023-03-14T12:44:42;10.30;99.90
27224;DHT22;14965;50.660;13.226;2023-03-14T12:50:42;10.20;99.90
27224;DHT22;14965;50.660;13.226;2023-03-14T12:56:41;10.50;99.90
27224;DHT22;14965;50.660;13.226;2023-03-14T12:59:33;10.40;99.90
27224;DHT22;14965;50.660;13.226;2023-03-14T13:02:22;10.50;99.90
27224;DHT22;14965;50.660;13.226;2023-03-14T13:04:52;10.60;99.90
27224;DHT22;14965;50.660;13.226;2023-03-14T13:07:35;10.60;99.90
27224;DHT22;14965;50.660;13.226;2023-03-14T13:10:24;10.40;99.90
27224;DHT22;14965;50.660;13.226;2023-03-14T13:12:54;10.30;99.90
27224;DHT22;14965;50.660;13.226;2023-03-14T13:15:26;10.20;99.90
27224;DHT22;14965;50.660;13.226;2023-03-14T13:17:56;10.20;99.90
27224;DHT22;14965;50.660;13.226;2023-03-14T13:20:30;10.10;99.90
27224;DHT22;14965;50.660;13.226;2023-03-14T13:22:59;10.10;99.90
27224;DHT22;14965;50.660;13.226;2023-03-14T13:25:29;10.20;99.90
27224;DHT22;14965;50.660;13.226;2023-03-14T13:27:58;10.30;99.90
27224;DHT22;14965;50.660;13.226;2023-03-14T13:30:26;10.30;99.90
27224;DHT22;14965;50.660;13.226;2023-03-14T13:32:54;10.40;99.90
27224;DHT22;14965;50.660;13.226;2023-03-14T13:35:24;10.40;99.90
27224;DHT22;14965;50.660;13.226;2023-03-14T13:37:56;10.40;99.90
27224;DHT22;14965;50.660;13.226;2023-03-14T13:40:28;10.30;99.90
27224;DHT22;14965;50.660;13.226;2023-03-14T13:43:05;10.20;99.90
27224;DHT22;14965;50.660;13.226;2023-03-14T13:45:50;10.10;99.90
27224;DHT22;14965;50.660;13.226;2023-03-14T13:48:22;10.20;99.90
27224;DHT22;14965;50.660;13.226;2023-03-14T13:50:55;10.20;99.90
27224;DHT22;14965;50.660;13.226;2023-03-14T13:53:24;10.30;99.90
27224;DHT22;14965;50.660;13.226;2023-03-14T13:55:53;10.40;99.90
27224;DHT22;14965;50.660;13.226;2023-03-14T13:58:22;10.60;99.90
27224;DHT22;14965;50.660;13.226;2023-03-14T14:01:05;10.60;99.90
27224;DHT22;14965;50.660;13.226;2023-03-14T14:03:40;10.70;99.90
27224;DHT22;14965;50.660;13.226;2023-03-14T14:06:18;10.70;99.90
27224;DHT22;14965;50.660;13.226;2023-03-14T14:08:49;10.60;99.90
27224;DHT22;14965;50.660;13.226;2023-03-14T14:11:24;10.50;99.90
27224;DHT22;14965;50.660;13.226;2023-03-14T14:14:01;10.50;99.90
27224;DHT22;14965;50.660;13.226;2023-03-14T14:16:28;10.50;99.90
27224;DHT22;14965;50.660;13.226;2023-03-14T14:18:57;10.60;99.90
27224;DHT22;14965;50.660;13.226;2023-03-14T14:21:26;10.60;99.90
27224;DHT22;14965;50.660;13.226;2023-03-14T14:23:52;10.70;99.90
27224;DHT22;14965;50.660;13.226;2023-03-14T14:26:20;10.70;99.90
27224;DHT22;14965;50.660;13.226;2023-03-14T14:28:46;10.70;99.90
27224;DHT22;14965;50.660;13.226;2023-03-14T14:31:23;10.60;99.90
27224;DHT22;14965;50.660;13.226;2023-03-14T14:33:59;10.60;99.90
27224;DHT22;14965;50.660;13.226;2023-03-14T14:36:30;10.60;99.90
27224;DHT22;14965;50.660;13.226;2023-03-14T14:39:00;10.60;99.90
27224;DHT22;14965;50.660;13.226;2023-03-14T14:41:34;10.50;99.90
27224;DHT22;14965;50.660;13.226;2023-03-14T14:44:05;10.40;99.90
27224;DHT22;14965;50.660;13.226;2023-03-14T14:46:32;10.30;99.90
27224;DHT22;14965;50.660;13.226;2023-03-14T14:49:10;10.30;99.90
27224;DHT22;14965;50.660;13.226;2023-03-14T14:51:42;10.30;99.90
27224;DHT22;14965;50.660;13.226;2023-03-14T14:54:12;10.30;99.90
27224;DHT22;14965;50.660;13.226;2023-03-14T14:56:46;10.20;99.90
27224;DHT22;14965;50.660;13.226;2023-03-14T14:59:25;10.20;99.90
27224;DHT22;14965;50.660;13.226;2023-03-14T15:01:55;10.10;99.90
27224;DHT22;14965;50.660;13.226;2023-03-14T15:04:23;10.10;99.90
27224;DHT22;14965;50.660;13.226;2023-03-14T15:06:50;10.10;99.90
27224;DHT22;14965;50.660;13.226;2023-03-14T15:09:18;10.10;99.90
27224;DHT22;14965;50.660;13.226;2023-03-14T15:11:46;10.10;99.90
27224;DHT22;14965;50.660;13.226;2023-03-14T15:14:16;10.10;99.90
27224;DHT22;14965;50.660;13.226;2023-03-14T15:16:42;10.10;99.90
27224;DHT22;14965;50.660;13.226;2023-03-14T15:19:16;10.00;99.90
27224;DHT22;14965;50.660;13.226;2023-03-14T15:21:46;10.00;99.90
27224;DHT22;14965;50.660;13.226;2023-03-14T15:24:12;10.00;99.90
27224;DHT22;14965;50.660;13.226;2023-03-14T15:26:38;10.00;99.90
27224;DHT22;14965;50.660;13.226;2023-03-14T15:29:08;9.90;99.90
27224;DHT22;14965;50.660;13.226;2023-03-14T15:31:38;9.80;99.90
27224;DHT22;14965;50.660;13.226;2023-03-14T15:34:04;9.70;99.90
27224;DHT22;14965;50.660;13.226;2023-03-14T15:36:33;9.70;99.90
27224;DHT22;14965;50.660;13.226;2023-03-14T15:39:03;9.50;99.90
27224;DHT22;14965;50.660;13.226;2023-03-14T15:41:30;9.50;99.90
27224;DHT22;14965;50.660;13.226;2023-03-14T15:44:00;9.40;99.90
27224;DHT22;14965;50.660;13.226;2023-03-14T15:46:28;9.20;99.90
27224;DHT22;14965;50.660;13.226;2023-03-14T15:48:54;9.00;99.90
27224;DHT22;14965;50.660;13.226;2023-03-14T15:51:22;8.90;99.90
27224;DHT22;14965;50.660;13.226;2023-03-14T15:53:48;8.70;99.90
27224;DHT22;14965;50.660;13.226;2023-03-14T15:56:16;8.60;99.90
27224;DHT22;14965;50.660;13.226;2023-03-14T15:58:44;8.50;99.90